28 maja 2022

Czas Kod Pogoda Temp. Widoczność Sufit Wiatr METAR/SPECI
6:55 pm
V
57 °F 6¼ mi+ 7.800 ft 310° 310° 7 kt METAR EHVK 281655Z AUTO 31007KT 260V350 9999 BKN078 14/02 Q1020 BLU
6:25 pm
V
57 °F 6¼ mi+ 5.200 ft 350° 350° 9 kt METAR EHVK 281625Z AUTO 35009KT 310V040 9999 FEW044 BKN052 OVC059 14/04 Q1020 BLU
5:55 pm
V
59 °F 6¼ mi+ 4.300 ft 330° 330° 9 kt METAR EHVK 281555Z AUTO 33009KT 290V010 9999 BKN043 BKN053 BKN065 15/04 Q1020 BLU
5:25 pm
V
59 °F 6¼ mi+ 6.100 ft 340° 340° 10 kt METAR EHVK 281525Z AUTO 34010KT 280V020 9999 SCT052 BKN061 OVC070 15/03 Q1020 BLU
4:55 pm
V
59 °F 6¼ mi+ 6.300 ft 330° 330° 8 kt METAR EHVK 281455Z AUTO 33008KT 270V360 9999 BKN063 BKN069 OVC074 15/03 Q1020 BLU
4:25 pm
V
61 °F 6¼ mi+ 7.300 ft 340° 340° 9 kt METAR EHVK 281425Z AUTO 34009KT 270V360 9999 FEW045 BKN073 16/04 Q1020 BLU
3:55 pm
V
61 °F 6¼ mi+ 5.400 ft 340° 340° 8 kt METAR EHVK 281355Z AUTO 34008KT 280V020 9999 BKN054 BKN065 16/03 Q1020 BLU
3:25 pm
V
59 °F 6¼ mi+ 4.700 ft 340° 340° 10 kt METAR EHVK 281325Z AUTO 34010KT 290V020 9999 FEW042 BKN047 OVC051 15/05 Q1021 BLU
2:55 pm
V
61 °F 6¼ mi+ 5.300 ft 310° 310° 9 kt METAR EHVK 281255Z AUTO 31009KT 270V010 9999 BKN053 OVC060 16/02 Q1021 BLU
2:25 pm
V
61 °F 6¼ mi+ - 320° 320° 8 kt METAR EHVK 281225Z AUTO 32008KT 270V010 9999 SCT065 SCT072 16/03 Q1021 BLU
1:55 pm
V
63 °F 6¼ mi+ - 330° 330° 7 kt METAR EHVK 281155Z AUTO 33007KT 260V010 9999 FEW052 17/03 Q1021 BLU
1:25 pm
V
61 °F 6¼ mi+ - 320° 320° 9 - 19 kt METAR EHVK 281125Z AUTO 32009G19KT 260V360 9999 SCT050 SCT058 16/03 Q1021 BLU
12:55 pm
V
61 °F 6¼ mi+ - 310° 310° 7 kt METAR EHVK 281055Z AUTO 31007KT 240V350 9999 FEW060 16/04 Q1021 BLU
12:25 pm
V
59 °F 6¼ mi+ 5.700 ft 300° 300° 9 kt METAR EHVK 281025Z AUTO 30009KT 250V360 9999 SCT045 SCT049 BKN057 15/02 Q1021 BLU
11:55 am
V
57 °F 6¼ mi+ 4.200 ft 310° 310° 7 kt METAR EHVK 280955Z AUTO 31007KT 270V360 9999 BKN042 BKN046 OVC051 14/04 Q1022 BLU
11:25 am
V
59 °F 6¼ mi+ - 330° 330° 8 kt METAR EHVK 280925Z AUTO 33008KT 270V360 9999 NCD 15/04 Q1022 BLU
10:55 am
V
57 °F 6¼ mi+ 4.300 ft 320° 320° 6 kt METAR EHVK 280855Z AUTO 32006KT 260V020 9999 SCT038 BKN043 BKN048 14/04 Q1022 BLU
10:25 am
V
57 °F 6¼ mi+ - 340° 340° 8 kt METAR EHVK 280825Z AUTO 34008KT 280V010 9999 NCD 14/05 Q1022 BLU
9:55 am
V
57 °F 6¼ mi+ 3.200 ft 350° 350° 11 kt METAR EHVK 280755Z AUTO 35011KT 290V010 9999 BKN032 BKN041 14/06 Q1022 BLU
9:25 am
M
57 °F 6¼ mi+ 2.900 ft 320° 320° 7 kt METAR EHVK 280725Z AUTO 32007KT 280V010 9999 BKN029 BKN033 14/06 Q1022 BLU
8:55 am
V
55 °F 6¼ mi+ - 330° 330° 8 kt METAR EHVK 280655Z AUTO 33008KT 270V360 9999 FEW027 SCT033 13/05 Q1022 BLU
8:29 am
V
55 °F 6¼ mi+ - 340° 340° 9 kt METAR EHVK 280629Z AUTO 34009KT 280V360 9999 FEW022 13/07 Q1021 BLU
8:25 am
V
54 °F 6¼ mi+ - 330° 330° 8 kt METAR EHVK 280625Z AUTO 33008KT 280V010 9999 SCT021 SCT026 12/07 Q1021 WHT
8:17 am
M
54 °F 6¼ mi+ 2.500 ft 330° 330° 8 kt METAR EHVK 280617Z AUTO 33008KT 280V020 9999 SCT021 BKN025 12/07 Q1021 WHT
8:15 am
V
54 °F 6¼ mi+ - 330° 330° 7 kt METAR EHVK 280615Z AUTO 33007KT 280V020 9999 FEW022 SCT026 12/07 Q1021 BLU
7:55 am
V
54 °F 6¼ mi+ - 330° 330° 7 kt METAR EHVK 280555Z AUTO 33007KT 270V360 9999 FEW021 12/07 Q1021 BLU
7:25 am
V
54 °F 6¼ mi+ - 290° 290° 5 kt METAR EHVK 280525Z AUTO 29005KT 250V340 9999 NCD 12/08 Q1021 BLU
6:55 am
V
52 °F 6¼ mi+ - 290° 290° 5 kt METAR EHVK 280455Z AUTO 29005KT 260V340 9999 NCD 11/08 Q1021 BLU
6:25 am
V
50 °F 6¼ mi+ - 280° 280° 4 kt METAR EHVK 280425Z AUTO 28004KT 250V320 9999 NCD 10/08 Q1021 BLU
5:55 am
V
50 °F 6¼ mi+ - 270° 270° 5 kt METAR EHVK 280355Z AUTO 27005KT 250V310 9999 NCD 10/07 Q1021 BLU
5:25 am
V
50 °F 6¼ mi+ - 270° 270° 5 kt METAR EHVK 280325Z AUTO 27005KT 240V300 9999 NCD 10/07 Q1021 BLU
4:55 am
V
46 °F 6¼ mi+ - 240° 240° 6 kt METAR EHVK 280255Z AUTO 24006KT 9999 NCD 08/06 Q1021 BLU
4:25 am
V
50 °F 6¼ mi+ - 260° 260° 5 kt METAR EHVK 280225Z AUTO 26005KT 9999 NCD 10/07 Q1021 BLU
3:55 am
V
50 °F 6¼ mi+ - 260° 260° 5 kt METAR EHVK 280155Z AUTO 26005KT 240V300 9999 NCD 10/06 Q1021 BLU
3:25 am
V
50 °F 6¼ mi+ - 250° 250° 5 kt METAR EHVK 280125Z AUTO 25005KT 9999 SCT078 10/06 Q1021 BLU
2:55 am
V
52 °F 6¼ mi+ 7.700 ft 250° 250° 7 kt METAR EHVK 280055Z AUTO 25007KT 230V290 9999 OVC077 11/06 Q1021 BLU
2:25 am
V
48 °F 6¼ mi+ - 240° 240° 7 kt METAR EHVK 280025Z AUTO 24007KT 9999 NCD 09/06 Q1021 BLU
1:55 am
V
52 °F 6¼ mi+ 3.900 ft 250° 250° 5 kt METAR EHVK 272355Z AUTO 25005KT 230V290 9999 BKN039 OVC043 11/06 Q1022 BLU
1:25 am
V
50 °F 6¼ mi+ - 250° 250° 6 kt METAR EHVK 272325Z AUTO 25006KT 9999 SCT055 10/06 Q1022 BLU
12:55 am
V
52 °F 6¼ mi+ - 250° 250° 6 kt METAR EHVK 272255Z AUTO 25006KT 230V290 9999 NCD 11/06 Q1022 BLU
12:25 am
V
50 °F 6¼ mi+ - 240° 240° 6 kt METAR EHVK 272225Z AUTO 24006KT 9999 NCD 10/06 Q1022 BLU

27 maja 2022

Czas Kod Pogoda Temp. Widoczność Sufit Wiatr METAR/SPECI
11:55 pm
V
50 °F 6¼ mi+ - 250° 250° 6 kt METAR EHVK 272155Z AUTO 25006KT 9999 NCD 10/06 Q1022 BLU
11:25 pm
V
50 °F 6¼ mi+ - 250° 250° 4 kt METAR EHVK 272125Z AUTO 25004KT 9999 SCT069 10/05 Q1023 BLU
10:55 pm
V
52 °F 6¼ mi+ - 250° 250° 4 kt METAR EHVK 272055Z AUTO 25004KT 9999 NCD 11/05 Q1023 BLU
10:25 pm
V
52 °F 6¼ mi+ - 270° 270° 4 kt METAR EHVK 272025Z AUTO 27004KT 9999 NCD 11/05 Q1023 BLU
9:55 pm
V
54 °F 6¼ mi+ - 280° 280° 5 kt METAR EHVK 271955Z AUTO 28005KT 250V310 9999 NCD 12/05 Q1023 BLU
9:25 pm
V
55 °F 6¼ mi+ - 280° 280° 5 kt METAR EHVK 271925Z AUTO 28005KT 250V330 9999 NCD 13/05 Q1023 BLU
8:55 pm
V
55 °F 6¼ mi+ - 300° 300° 6 kt METAR EHVK 271855Z AUTO 30006KT 250V330 9999 NCD 13/04 Q1022 BLU
8:25 pm
V
57 °F 6¼ mi+ - 300° 300° 6 kt METAR EHVK 271825Z AUTO 30006KT 260V350 9999 FEW045 14/04 Q1022 BLU
7:55 pm
V
57 °F 6¼ mi+ - 290° 290° 9 kt METAR EHVK 271755Z AUTO 29009KT 240V340 9999 FEW043 14/04 Q1022 BLU
7:25 pm
V
59 °F 6¼ mi+ - 290° 290° 9 - 20 kt METAR EHVK 271725Z AUTO 29009G20KT 250V340 9999 FEW042 15/04 Q1022 BLU
6:55 pm
V
59 °F 6¼ mi+ 4.200 ft 310° 310° 8 kt METAR EHVK 271655Z AUTO 31008KT 240V340 9999 BKN042 BKN049 15/05 Q1022 BLU
6:25 pm
V
59 °F 6¼ mi+ - 290° 290° 9 kt METAR EHVK 271625Z AUTO 29009KT 240V330 9999 FEW051 15/05 Q1022 BLU
5:55 pm
V
59 °F 6¼ mi+ 5.100 ft 290° 290° 10 kt METAR EHVK 271555Z AUTO 29010KT 250V350 9999 SCT044 BKN051 15/04 Q1022 BLU
5:25 pm
V
61 °F 6¼ mi+ 4.400 ft 320° 320° 9 - 19 kt METAR EHVK 271525Z AUTO 32009G19KT 260V350 9999 BKN044 16/05 Q1022 BLU
4:55 pm
V
61 °F 6¼ mi+ 4.400 ft 300° 300° 10 kt METAR EHVK 271455Z AUTO 30010KT 250V350 9999 BKN044 16/05 Q1022 BLU
4:25 pm
V
63 °F 6¼ mi+ - 290° 290° 11 kt METAR EHVK 271425Z AUTO 29011KT 280V010 9999 SCT046 17/05 Q1022 BLU
3:55 pm
V
63 °F 6¼ mi+ - 300° 300° 9 kt METAR EHVK 271355Z AUTO 30009KT 250V360 9999 SCT048 17/05 Q1021 BLU
3:25 pm
V
63 °F 6¼ mi+ - 290° 290° 10 kt METAR EHVK 271325Z AUTO 29010KT 250V340 9999 SCT040 17/06 Q1021 BLU
2:55 pm
V
63 °F 6¼ mi+ 4.000 ft 300° 300° 11 - 21 kt METAR EHVK 271255Z AUTO 30011G21KT 250V340 9999 BKN040 BKN045 BKN053 17/07 Q1021 BLU
2:25 pm
V
63 °F 6¼ mi+ 4.500 ft 270° 270° 12 kt METAR EHVK 271225Z AUTO 27012KT 220V330 9999 BKN045 17/06 Q1021 BLU
1:55 pm
V
61 °F 6¼ mi+ 4.500 ft 290° 290° 10 kt METAR EHVK 271155Z AUTO 29010KT 230V360 9999 BKN045 BKN051 16/06 Q1021 BLU
1:25 pm
V
63 °F 6¼ mi+ 4.800 ft 290° 290° 10 kt METAR EHVK 271125Z AUTO 29010KT 250V340 9999 SCT043 BKN048 17/06 Q1021 BLU
12:55 pm
V
63 °F 6¼ mi+ 4.900 ft 280° 280° 13 kt METAR EHVK 271055Z AUTO 28013KT 230V330 9999 SCT044 BKN049 BKN054 17/06 Q1021 BLU
12:25 pm
V
63 °F 6¼ mi+ - 280° 280° 10 - 20 kt METAR EHVK 271025Z AUTO 28010G20KT 220V330 9999 FEW038 SCT043 17/08 Q1021 BLU
11:55 am
V
61 °F 6¼ mi+ - 290° 290° 9 kt METAR EHVK 270955Z AUTO 29009KT 240V340 9999 FEW038 16/07 Q1021 BLU
11:25 am
V
63 °F 6¼ mi+ - 300° 300° 9 kt METAR EHVK 270925Z AUTO 30009KT 260V360 9999 FEW045 SCT049 17/07 Q1021 BLU
10:55 am
V
59 °F 6¼ mi+ 3.200 ft 300° 300° 7 kt METAR EHVK 270855Z AUTO 30007KT 270V350 9999 BKN032 OVC039 15/08 Q1021 BLU
10:25 am
V
61 °F 6¼ mi+ 6.100 ft 290° 290° 8 - 18 kt METAR EHVK 270825Z AUTO 29008G18KT 250V330 9999 SCT035 SCT044 BKN061 16/09 Q1020 BLU
9:55 am
V
59 °F 6¼ mi+ 3.400 ft 290° 290° 7 kt METAR EHVK 270755Z AUTO 29007KT 250V350 9999 BKN034 BKN041 15/08 Q1020 BLU
9:25 am
V
59 °F 6¼ mi+ 36.000 ft 290° 290° 7 kt METAR EHVK 270725Z AUTO 29007KT 260V350 9999 FEW026 OVC360 15/10 Q1020 BLU
8:55 am
V
59 °F 6¼ mi+ 37.000 ft 280° 280° 6 kt METAR EHVK 270655Z AUTO 28006KT 250V340 9999 FEW020 OVC370 15/12 Q1020 BLU
8:25 am
V
57 °F 6¼ mi+ 4.200 ft 270° 270° 6 kt METAR EHVK 270625Z AUTO 27006KT 240V320 9999 BKN042 OVC048 14/12 Q1020 BLU
7:55 am
V
57 °F 6¼ mi+ 4.400 ft 270° 270° 6 kt METAR EHVK 270555Z AUTO 27006KT 240V300 9999 OVC044 14/13 Q1020 BLU
7:25 am
V
57 °F 6¼ mi+ 33.000 ft 250° 250° 5 kt METAR EHVK 270525Z AUTO 25005KT 220V290 9999 FEW014 BKN330 14/13 Q1019 BLU
7:12 am
V
57 °F 6¼ mi+ - 250° 250° 6 kt METAR EHVK 270512Z AUTO 25006KT 220V280 9999 FEW014 SCT350 14/13 Q1019 BLU
6:55 am
M
57 °F 6¼ mi+ 2.100 ft 240° 240° 5 kt METAR EHVK 270455Z AUTO 24005KT 210V270 9999 FEW015 SCT018 BKN021 14/13 Q1019 WHT
6:32 am
V
55 °F 6¼ mi+ 5.200 ft 250° 250° 4 kt METAR EHVK 270432Z AUTO 25004KT 9999 FEW016 SCT038 BKN052 13/12 Q1019 BLU
6:25 am
M
55 °F 6¼ mi+ 2.200 ft 250° 250° 5 kt METAR EHVK 270425Z AUTO 25005KT 9999 FEW018 BKN022 OVC055 13/12 Q1019 WHT
6:18 am
V
55 °F 6¼ mi+ 5.500 ft 240° 240° 5 kt METAR EHVK 270418Z AUTO 24005KT 220V280 9999 FEW019 SCT023 OVC055 13/12 Q1019 WHT
5:55 am
V
55 °F 6¼ mi+ 4.000 ft 250° 250° 5 kt METAR EHVK 270355Z AUTO 25005KT 9999 FEW033 BKN040 OVC044 13/12 Q1019 REDZ BLU
5:31 am
V
55 °F 6¼ mi+ 4.200 ft 240° 240° 6 kt METAR EHVK 270331Z AUTO 24006KT 210V270 9999 DZ BKN042 OVC047 13/12 Q1019 BLU
5:25 am
M
55 °F 3¾ mi 4.200 ft 240° 240° 6 kt METAR EHVK 270325Z AUTO 24006KT 210V270 6000 DZRA FEW027 SCT036 OVC042 13/12 Q1019 REDZ WHT
5:13 am
V
55 °F 6¼ mi+ 3.800 ft 240° 240° 6 kt METAR EHVK 270313Z AUTO 24006KT 210V270 9999 -RA FEW015CB BKN038 OVC043 13/12 Q1019 BLU
5:08 am
I
55 °F 2¾ mi 3.700 ft 240° 240° 5 kt METAR EHVK 270308Z AUTO 24005KT 4500 -RA FEW025 OVC037 13/12 Q1019 GRN
4:55 am
V
55 °F 6¼ mi+ 3.200 ft 250° 250° 5 kt METAR EHVK 270255Z AUTO 25005KT 220V290 9999 -SHRA -DZ FEW023 OVC032 13/12 Q1019 REDZ BLU
4:33 am
M
55 °F 3¾ mi 3.500 ft 270° 270° 6 kt METAR EHVK 270233Z AUTO 27006KT 230V340 6000 -SHRA DZ FEW015CB SCT028 OVC035 13/12 Q1019 WHT
4:27 am
I
55 °F 2¾ mi 3.400 ft 280° 280° 6 kt METAR EHVK 270227Z AUTO 28006KT 240V340 4400 -SHRA +DZ FEW015CB OVC034 13/12 Q1019 GRN
4:25 am
M
55 °F 3¾ mi 3.300 ft 280° 280° 6 kt METAR EHVK 270225Z AUTO 28006KT 240V320 6000 -RADZ FEW005 FEW015CB SCT026 OVC033 13/12 Q1019 RERA WHT
4:14 am
I
55 °F 3⅛ mi 500 ft 300° 300° 5 kt METAR EHVK 270214Z AUTO 30005KT 260V360 5000 SHRA FEW004 BKN005 BKN007 FEW015CB 13/13 Q1019 YLO
4:07 am
I
55 °F 3¾ mi 800 ft 290° 290° 7 kt METAR EHVK 270207Z AUTO 29007KT 210V360 6000 SHRA +DZ FEW005 SCT006 BKN008 FEW015CB 13/13 Q1019 YLO
3:56 am
I
55 °F 2¼ mi 1.400 ft 250° 250° 10 kt METAR EHVK 270156Z AUTO 25010KT 210V280 3700 +DZ FEW006 SCT009 BKN014 FEW015CB 13/13 Q1019 GRN
3:55 am
I
57 °F 2⅛ mi 1.300 ft 240° 240° 11 kt METAR EHVK 270155Z AUTO 24011KT 210V270 3500 +DZRA FEW007 SCT010 BKN013 FEW015CB 14/12 Q1019 YLO
3:42 am
I
57 °F 2 mi 1.400 ft 240° 240° 11 kt METAR EHVK 270142Z AUTO 24011KT 210V270 3200 -SHRA +DZ FEW007 SCT012 BKN014 FEW015CB 14/12 Q1019 YLO
3:35 am
I
57 °F 1⅞ mi 1.500 ft 240° 240° 10 kt METAR EHVK 270135Z AUTO 24010KT 210V270 3000 +DZ FEW007 SCT013 BKN015 14/12 Q1019 YLO
3:34 am
I
57 °F 2⅜ mi 1.400 ft 240° 240° 10 kt METAR EHVK 270134Z AUTO 24010KT 210V270 3900 +DZ FEW007 BKN014 OVC017 14/12 Q1019 GRN
3:27 am
I
57 °F 2⅞ mi 1.500 ft 240° 240° 10 kt METAR EHVK 270127Z AUTO 24010KT 210V270 4600 DZ FEW007 OVC015 14/12 Q1019 GRN
3:25 am
M
57 °F 5⅝ mi 1.500 ft 250° 250° 11 kt METAR EHVK 270125Z AUTO 25011KT 210V280 9000 -DZ OVC015 14/12 Q1019 REDZ WHT
3:06 am
M
59 °F 3¾ mi 1.600 ft 250° 250° 11 kt METAR EHVK 270106Z AUTO 25011KT 190V280 6000 -RA BKN016 OVC020 15/11 Q1019 WHT
2:55 am
M
59 °F 6¼ mi+ 1.800 ft 240° 240° 13 kt METAR EHVK 270055Z AUTO 24013KT 210V280 9999 FEW010 BKN018 OVC021 15/11 Q1019 WHT
2:25 am
M
59 °F 6¼ mi+ 1.800 ft 240° 240° 13 kt METAR EHVK 270025Z AUTO 24013KT 210V280 9999 BKN018 BKN021 OVC025 15/11 Q1019 WHT
1:55 am
M
59 °F 6¼ mi+ 1.900 ft 240° 240° 13 kt METAR EHVK 262355Z AUTO 24013KT 210V280 9999 BKN019 BKN030 OVC045 15/11 Q1019 WHT
1:43 am
M
59 °F 6¼ mi+ 2.700 ft 240° 240° 13 kt METAR EHVK 262343Z AUTO 24013KT 210V270 9999 SCT019 BKN027 BKN033 15/11 Q1019 WHT
1:34 am
M
59 °F 6¼ mi+ 2.800 ft 240° 240° 13 kt METAR EHVK 262334Z AUTO 24013KT 210V270 9999 SCT019 SCT023 BKN028 15/11 Q1020 WHT
1:25 am
M
59 °F 6¼ mi+ 1.900 ft 240° 240° 13 kt METAR EHVK 262325Z AUTO 24013KT 200V270 9999 BKN019 BKN027 OVC035 15/11 Q1020 WHT
1:15 am
M
59 °F 6¼ mi+ 1.900 ft 240° 240° 13 kt METAR EHVK 262315Z AUTO 24013KT 200V290 9999 BKN019 BKN022 BKN027 15/11 Q1020 WHT
1:14 am
M
59 °F 6¼ mi+ 2.900 ft 240° 240° 13 kt METAR EHVK 262314Z AUTO 24013KT 210V290 9999 SCT019 BKN029 OVC057 15/11 Q1020 WHT
1:08 am
V
59 °F 6¼ mi+ 5.500 ft 240° 240° 13 kt METAR EHVK 262308Z AUTO 24013KT 190V280 9999 SCT019 SCT029 OVC055 15/11 Q1020 WHT
12:55 am
M
59 °F 6¼ mi+ 1.900 ft 240° 240° 14 kt METAR EHVK 262255Z AUTO 24014KT 200V280 9999 BKN019 BKN033 BKN040 15/11 Q1020 WHT
12:25 am
M
59 °F 6¼ mi+ 2.000 ft 240° 240° 14 kt METAR EHVK 262225Z AUTO 24014KT 210V270 9999 BKN020 OVC033 15/11 Q1020 WHT
12:10 am
M
61 °F 6¼ mi+ 2.400 ft 240° 240° 13 kt METAR EHVK 262210Z AUTO 24013KT 220V280 9999 SCT021 BKN024 BKN030 16/11 Q1020 WHT
12:02 am
V
61 °F 6¼ mi+ 3.200 ft 240° 240° 13 kt METAR EHVK 262202Z AUTO 24013KT 200V280 9999 FEW021 BKN032 BKN036 16/11 Q1020 BLU

26 maja 2022

Czas Kod Pogoda Temp. Widoczność Sufit Wiatr METAR/SPECI
11:55 pm
M
61 °F 6¼ mi+ 2.100 ft 240° 240° 13 kt METAR EHVK 262155Z AUTO 24013KT 200V270 9999 BKN021 OVC032 16/11 Q1020 WHT
11:51 pm
M
61 °F 6¼ mi+ 2.500 ft 240° 240° 14 kt METAR EHVK 262151Z AUTO 24014KT 200V280 9999 SCT021 BKN025 BKN034 16/11 Q1020 WHT
11:43 pm
V
61 °F 6¼ mi+ 5.000 ft 240° 240° 13 kt METAR EHVK 262143Z AUTO 24013KT 210V280 9999 SCT023 SCT032 OVC050 16/11 Q1020 WHT
11:35 pm
V
61 °F 6¼ mi+ 3.200 ft 240° 240° 13 kt METAR EHVK 262135Z AUTO 24013KT 210V280 9999 SCT022 BKN032 BKN038 16/11 Q1020 WHT
11:25 pm
V
61 °F 6¼ mi+ 4.500 ft 240° 240° 13 - 23 kt METAR EHVK 262125Z AUTO 24013G23KT 200V280 9999 FEW023 BKN045 OVC053 16/11 Q1020 BLU
11:12 pm
V
61 °F 6¼ mi+ 5.400 ft 240° 240° 13 kt METAR EHVK 262112Z AUTO 24013KT 210V280 9999 FEW023 SCT034 OVC054 16/11 Q1020 BLU
11:05 pm
M
61 °F 6¼ mi+ 2.300 ft 240° 240° 14 kt METAR EHVK 262105Z AUTO 24014KT 200V270 9999 BKN023 BKN035 BKN042 16/11 Q1020 WHT
11:00 pm
V
61 °F 6¼ mi+ 3.600 ft 240° 240° 14 kt METAR EHVK 262100Z AUTO 24014KT 210V280 9999 SCT024/// BKN036/// BKN040/// 16/11 Q1020 WHT RMK TS INFO NOT AVBL
10:55 pm
V
61 °F 6¼ mi+ 5.100 ft 240° 240° 12 kt METAR EHVK 262055Z AUTO 24012KT 200V280 9999 FEW026/// SCT036/// OVC051/// 16/11 Q1020 BLU RMK TS INFO NOT AVBL
10:25 pm
V
63 °F 6¼ mi+ 5.300 ft 240° 240° 16 kt METAR EHVK 262025Z AUTO 24016KT 220V290 9999 FEW028/// OVC053/// 17/11 Q1020 BLU RMK TS INFO NOT AVBL
9:55 pm
V
63 °F 6¼ mi+ 5.000 ft 250° 250° 14 kt METAR EHVK 261955Z AUTO 25014KT 210V290 9999 OVC050/// 17/11 Q1020 BLU RMK TS INFO NOT AVBL
9:25 pm
V
63 °F 6¼ mi+ 4.800 ft 250° 250° 13 kt METAR EHVK 261925Z AUTO 25013KT 210V280 9999 OVC048/// 17/11 Q1019 BLU RMK TS INFO NOT AVBL
8:55 pm
V
64 °F 6¼ mi+ 3.600 ft 250° 250° 12 kt METAR EHVK 261855Z AUTO 25012KT 220V300 9999 FEW030/// OVC036/// 18/11 Q1019 BLU RMK TS INFO NOT AVBL
8:25 pm
V
64 °F 6¼ mi+ 3.300 ft 270° 270° 9 kt METAR EHVK 261825Z AUTO 27009KT 230V320 9999 SCT028/// BKN033/// OVC037/// 18/12 Q1020 BLU RMK TS INFO NOT AVBL
7:55 pm
V
66 °F 6¼ mi+ 3.500 ft 250° 250° 11 kt METAR EHVK 261755Z AUTO 25011KT 220V290 9999 OVC035/// 19/11 Q1019 BLU RMK TS INFO NOT AVBL
7:25 pm
V
66 °F 6¼ mi+ 3.600 ft 240° 240° 12 kt METAR EHVK 261725Z AUTO 24012KT 210V280 9999 OVC036/// 19/11 Q1019 BLU RMK TS INFO NOT AVBL
6:55 pm
V
66 °F 6¼ mi+ 3.900 ft 250° 250° 14 kt METAR EHVK 261655Z AUTO 25014KT 200V280 9999 BKN039/// OVC044/// 19/11 Q1019 BLU RMK TS INFO NOT AVBL
6:25 pm
V
68 °F 6¼ mi+ 4.400 ft 240° 240° 12 kt METAR EHVK 261625Z AUTO 24012KT 200V290 9999 SCT039/// OVC044/// 20/11 Q1019 BLU RMK TS INFO NOT AVBL
5:55 pm
V
68 °F 6¼ mi+ 4.000 ft 240° 240° 17 kt METAR EHVK 261555Z AUTO 24017KT 200V280 9999 BKN040/// OVC045/// 20/10 Q1019 BLU RMK TS INFO NOT AVBL
5:25 pm
V
68 °F 6¼ mi+ 4.000 ft 240° 240° 16 kt METAR EHVK 261525Z AUTO 24016KT 210V280 9999 BKN040/// OVC045/// 20/10 Q1020 BLU RMK TS INFO NOT AVBL
4:55 pm
V
68 °F 6¼ mi+ 4.500 ft 250° 250° 14 kt METAR EHVK 261455Z AUTO 25014KT 220V300 9999 SCT040/// BKN045/// OVC049/// 20/10 Q1020 BLU RMK TS INFO NOT AVBL
Starsze dane

Pobierz naszą aplikację

Łatwy dostęp do całej pogody lotniczej na telefonie komórkowym i tablecie.
Z wieloma funkcjami niedostępnymi na stronie internetowej, takimi jak wsparcie offline i osobista lista lotnisk.

My i osoby trzecie śledzimy twoje zachowanie w internecie na naszej stronie za pomocą plików cookie. Jeśli kontynuujesz, zakładamy, że zgadzasz się z naszą polityką plików cookie. Dowiedz się więcej